createdAt,value
2023-03-27T00:00:13.893Z,10.20
2023-03-27T00:02:41.594Z,7.43
2023-03-27T00:05:08.560Z,8.35
2023-03-27T00:07:36.106Z,7.25
2023-03-27T00:10:02.693Z,8.30
2023-03-27T00:12:29.281Z,11.68
2023-03-27T00:14:55.972Z,7.35
2023-03-27T00:17:22.458Z,7.38
2023-03-27T00:19:49.154Z,10.02
2023-03-27T00:22:15.739Z,8.85
2023-03-27T00:24:42.248Z,7.30
2023-03-27T00:27:09.165Z,6.55
2023-03-27T00:29:36.135Z,4.10
2023-03-27T00:32:02.728Z,5.95
2023-03-27T00:34:30.196Z,11.27
2023-03-27T00:36:56.954Z,12.27
2023-03-27T00:39:23.824Z,17.83
2023-03-27T00:41:50.602Z,13.85
2023-03-27T00:44:28.416Z,19.35
2023-03-27T00:46:57.008Z,18.30
2023-03-27T00:49:26.439Z,13.95
2023-03-27T00:51:53.933Z,23.70
2023-03-27T00:54:26.600Z,17.95
2023-03-27T00:56:59.152Z,18.02
2023-03-27T00:59:28.631Z,15.38
2023-03-27T01:01:55.217Z,17.98
2023-03-27T01:04:22.373Z,11.98
2023-03-27T01:06:51.881Z,14.00
2023-03-27T01:09:20.635Z,10.52
2023-03-27T01:11:48.245Z,12.57
2023-03-27T01:14:21.153Z,9.57
2023-03-27T01:16:47.824Z,10.40
2023-03-27T01:19:35.392Z,11.18
2023-03-27T01:22:22.020Z,12.85
2023-03-27T01:24:57.784Z,4.93
2023-03-27T01:27:38.060Z,9.10
2023-03-27T01:30:34.039Z,6.90
2023-03-27T01:33:09.679Z,7.82
2023-03-27T01:35:55.392Z,5.85
2023-03-27T01:38:36.340Z,4.68
2023-03-27T01:41:22.018Z,7.03
2023-03-27T01:44:08.934Z,6.35
2023-03-27T01:46:57.092Z,11.52
2023-03-27T01:49:40.171Z,15.25
2023-03-27T01:52:18.380Z,12.18
2023-03-27T01:54:47.510Z,14.00
2023-03-27T01:57:22.194Z,16.70
2023-03-27T01:59:55.546Z,7.50
2023-03-27T02:02:25.855Z,7.43
2023-03-27T02:04:56.169Z,10.48
2023-03-27T02:07:30.349Z,7.75
2023-03-27T02:10:00.348Z,12.90
2023-03-27T02:12:33.357Z,16.20
2023-03-27T02:15:23.795Z,16.55
2023-03-27T02:17:57.599Z,10.63
2023-03-27T02:20:24.307Z,15.75
2023-03-27T02:22:50.831Z,18.40
2023-03-27T02:25:26.986Z,12.60
2023-03-27T02:27:59.131Z,20.30
2023-03-27T02:30:39.834Z,22.00
2023-03-27T02:33:14.839Z,17.63
2023-03-27T02:35:48.754Z,31.63
2023-03-27T02:38:17.353Z,20.02
2023-03-27T02:40:54.790Z,25.83
2023-03-27T02:43:51.488Z,17.67
2023-03-27T02:46:32.792Z,20.17
2023-03-27T02:49:02.599Z,27.52
2023-03-27T02:51:31.022Z,23.52
2023-03-27T02:54:03.419Z,20.95
2023-03-27T02:56:33.927Z,14.82
2023-03-27T02:59:01.078Z,18.27
2023-03-27T03:01:32.657Z,33.30
2023-03-27T03:04:42.101Z,21.35
2023-03-27T03:07:27.108Z,25.65
2023-03-27T03:09:54.492Z,34.30
2023-03-27T03:12:21.522Z,23.60
2023-03-27T03:14:48.052Z,18.40
2023-03-27T03:17:16.337Z,19.15
2023-03-27T03:19:44.844Z,17.48
2023-03-27T03:22:11.517Z,15.52
2023-03-27T03:24:41.986Z,15.30
2023-03-27T03:27:10.199Z,19.13
2023-03-27T03:29:56.837Z,14.82
2023-03-27T03:32:27.439Z,14.77
2023-03-27T03:34:54.254Z,18.02
2023-03-27T03:37:21.166Z,13.93
2023-03-27T03:39:47.866Z,12.07
2023-03-27T03:42:22.634Z,10.75
2023-03-27T03:44:54.511Z,13.23
2023-03-27T03:47:23.997Z,12.43
2023-03-27T03:49:50.581Z,14.23
2023-03-27T03:52:17.342Z,14.00
2023-03-27T03:54:46.593Z,17.42
2023-03-27T03:57:13.474Z,10.73
2023-03-27T03:59:40.753Z,14.02
2023-03-27T04:02:29.985Z,11.38
2023-03-27T04:05:08.372Z,17.15
2023-03-27T04:07:35.719Z,21.52
2023-03-27T04:10:20.412Z,17.58
2023-03-27T04:12:48.633Z,12.73
2023-03-27T04:15:26.809Z,15.60
2023-03-27T04:18:19.765Z,16.65
2023-03-27T04:20:50.581Z,17.05
2023-03-27T04:23:19.441Z,14.52
2023-03-27T04:25:48.789Z,14.27
2023-03-27T04:28:21.424Z,11.30
2023-03-27T04:30:54.923Z,8.60
2023-03-27T04:33:46.414Z,12.95
2023-03-27T04:36:44.724Z,10.43
2023-03-27T04:39:16.392Z,11.45
2023-03-27T04:41:48.714Z,14.38
2023-03-27T04:44:17.656Z,10.32
2023-03-27T04:46:48.918Z,13.52
2023-03-27T04:49:19.186Z,12.55
2023-03-27T04:52:02.876Z,7.65
2023-03-27T04:54:31.936Z,14.52
2023-03-27T04:57:01.206Z,8.88
2023-03-27T04:59:31.963Z,11.57
2023-03-27T05:02:18.622Z,9.95
2023-03-27T05:04:50.861Z,14.70
2023-03-27T05:07:19.968Z,8.25
2023-03-27T05:09:47.386Z,7.68
2023-03-27T05:12:14.151Z,11.25
2023-03-27T05:14:48.631Z,15.77
2023-03-27T05:17:32.652Z,13.95
2023-03-27T05:19:59.307Z,8.77
2023-03-27T05:22:30.643Z,9.65
2023-03-27T05:25:07.006Z,13.75
2023-03-27T05:27:34.210Z,13.32
2023-03-27T05:30:00.859Z,12.77
2023-03-27T05:32:27.784Z,16.95
2023-03-27T05:35:16.341Z,13.00
2023-03-27T05:37:53.064Z,15.52
2023-03-27T05:40:25.721Z,8.82
2023-03-27T05:42:53.371Z,11.10
2023-03-27T05:45:20.432Z,10.90
2023-03-27T05:47:51.975Z,14.27
2023-03-27T05:50:19.781Z,9.80
2023-03-27T05:52:46.831Z,13.02
2023-03-27T05:55:14.895Z,12.80
2023-03-27T05:57:41.756Z,16.70
2023-03-27T06:00:16.949Z,6.40
2023-03-27T06:02:47.507Z,16.15
2023-03-27T06:05:16.410Z,8.75
2023-03-27T06:07:48.388Z,9.95
2023-03-27T06:10:17.803Z,17.45
2023-03-27T06:13:06.562Z,12.57
2023-03-27T06:15:41.199Z,16.80
2023-03-27T06:18:28.186Z,10.90
2023-03-27T06:20:55.361Z,9.45
2023-03-27T06:23:22.142Z,9.90
2023-03-27T06:25:48.871Z,12.18
2023-03-27T06:28:15.494Z,11.77
2023-03-27T06:30:48.173Z,9.27
2023-03-27T06:33:29.634Z,7.20
2023-03-27T06:36:00.802Z,13.93
2023-03-27T06:38:32.017Z,9.55
2023-03-27T06:41:00.972Z,16.38
2023-03-27T06:43:47.663Z,9.98
2023-03-27T06:46:38.670Z,13.88
2023-03-27T06:49:27.225Z,6.88
2023-03-27T06:51:54.371Z,8.25
2023-03-27T06:54:21.710Z,8.10
2023-03-27T06:56:53.074Z,11.95
2023-03-27T06:59:21.489Z,10.20
2023-03-27T07:01:52.652Z,10.15
2023-03-27T07:04:54.174Z,11.32
2023-03-27T07:07:36.155Z,9.82
2023-03-27T07:10:07.288Z,8.25
2023-03-27T07:12:36.030Z,7.75
2023-03-27T07:15:02.804Z,8.57
2023-03-27T07:17:45.877Z,6.75
2023-03-27T07:20:14.545Z,7.97
2023-03-27T07:22:43.439Z,7.65
2023-03-27T07:25:20.860Z,11.38
2023-03-27T07:27:48.945Z,10.23
2023-03-27T07:30:15.618Z,6.30
2023-03-27T07:32:44.725Z,6.50
2023-03-27T07:35:12.862Z,6.78
2023-03-27T07:37:58.366Z,6.75
2023-03-27T07:40:40.391Z,9.35
2023-03-27T07:46:10.721Z,8.45
2023-03-27T07:48:37.398Z,7.70
2023-03-27T07:53:38.262Z,6.90
2023-03-27T07:56:34.054Z,3.72
2023-03-27T07:59:20.574Z,5.50
2023-03-27T08:01:51.038Z,7.80
2023-03-27T08:04:21.229Z,8.40
2023-03-27T08:07:02.868Z,7.13
2023-03-27T08:09:30.403Z,5.78
2023-03-27T08:11:56.987Z,5.55
2023-03-27T08:14:27.425Z,7.22
2023-03-27T08:17:08.550Z,4.68
2023-03-27T08:19:46.559Z,4.63
2023-03-27T08:22:14.057Z,5.65
2023-03-27T08:25:01.301Z,4.68
2023-03-27T08:27:28.086Z,4.90
2023-03-27T08:29:54.643Z,8.25
2023-03-27T08:32:22.479Z,6.25
2023-03-27T08:34:51.363Z,3.05
2023-03-27T08:37:22.606Z,5.43
2023-03-27T08:40:29.727Z,8.80
2023-03-27T08:43:19.130Z,4.40
2023-03-27T08:45:50.183Z,6.05
2023-03-27T08:48:37.526Z,4.50
2023-03-27T08:51:09.992Z,3.75
2023-03-27T08:53:41.054Z,7.30
2023-03-27T08:56:15.175Z,4.40
2023-03-27T08:58:46.067Z,4.07
2023-03-27T09:01:26.652Z,5.45
2023-03-27T09:04:14.344Z,16.35
2023-03-27T09:06:48.871Z,3.80
2023-03-27T09:09:21.756Z,3.30
2023-03-27T09:11:52.434Z,5.35
2023-03-27T09:14:31.578Z,6.70
2023-03-27T09:17:00.603Z,6.32
2023-03-27T09:19:37.509Z,5.05
2023-03-27T09:22:10.754Z,8.15
2023-03-27T09:24:50.910Z,8.52
2023-03-27T09:27:52.238Z,3.50
2023-03-27T09:30:30.360Z,7.35
2023-03-27T09:33:20.867Z,5.50
2023-03-27T09:35:48.579Z,7.05
2023-03-27T09:38:17.088Z,3.00
2023-03-27T09:40:58.086Z,5.35
2023-03-27T09:43:29.942Z,7.22
2023-03-27T09:46:01.193Z,8.07
2023-03-27T09:48:34.486Z,3.85
2023-03-27T09:51:02.685Z,5.57
2023-03-27T09:53:39.116Z,6.93
2023-03-27T09:56:17.230Z,11.90
2023-03-27T09:58:50.719Z,8.38
2023-03-27T10:01:36.446Z,7.65
2023-03-27T10:04:17.653Z,8.27
2023-03-27T10:06:48.867Z,3.45
2023-03-27T10:09:37.021Z,6.20
2023-03-27T10:12:09.804Z,4.28
2023-03-27T10:14:38.281Z,7.38
2023-03-27T10:17:06.016Z,10.25
2023-03-27T10:19:37.193Z,7.13
2023-03-27T10:22:17.049Z,7.65
2023-03-27T10:24:46.103Z,18.38
2023-03-27T10:27:22.117Z,7.68
2023-03-27T10:30:26.157Z,8.65
2023-03-27T10:32:58.207Z,5.55
2023-03-27T10:35:44.200Z,6.43
2023-03-27T10:38:32.713Z,7.50
2023-03-27T10:41:28.075Z,3.67
2023-03-27T10:43:58.398Z,9.07
2023-03-27T10:46:26.703Z,8.60
2023-03-27T10:49:17.999Z,5.10
2023-03-27T10:51:54.121Z,5.28
2023-03-27T10:54:40.917Z,8.10
2023-03-27T10:57:17.465Z,5.90
2023-03-27T10:59:50.894Z,7.03
2023-03-27T11:02:27.088Z,7.70
2023-03-27T11:04:58.131Z,7.18
2023-03-27T11:07:44.200Z,4.35
2023-03-27T11:10:18.712Z,4.82
2023-03-27T11:12:51.084Z,8.68
2023-03-27T11:15:25.130Z,7.15
2023-03-27T11:17:57.647Z,5.65
2023-03-27T11:20:34.612Z,4.40
2023-03-27T11:23:28.566Z,5.63
2023-03-27T11:26:25.626Z,9.25
2023-03-27T11:29:02.011Z,6.18
2023-03-27T11:31:47.470Z,7.75
2023-03-27T11:34:42.715Z,4.53
2023-03-27T11:37:41.274Z,3.17
2023-03-27T11:40:09.694Z,7.30
2023-03-27T11:42:39.586Z,3.47
2023-03-27T11:45:12.769Z,7.05
2023-03-27T11:47:42.737Z,7.05
2023-03-27T11:50:23.130Z,6.57
2023-03-27T11:52:57.502Z,8.30
2023-03-27T11:55:49.091Z,9.57
2023-03-27T11:58:28.752Z,4.90
2023-03-27T12:01:17.290Z,4.13
2023-03-27T12:04:24.526Z,1.90
2023-03-27T12:07:05.179Z,4.13
2023-03-27T12:09:43.628Z,3.65
2023-03-27T12:12:41.957Z,3.63
2023-03-27T12:15:11.726Z,4.53
2023-03-27T12:17:50.615Z,3.70
2023-03-27T12:20:43.593Z,5.38
2023-03-27T12:23:17.210Z,3.70
2023-03-27T12:26:22.776Z,8.63
2023-03-27T12:29:23.320Z,13.18
2023-03-27T12:32:10.654Z,4.57
2023-03-27T12:34:57.745Z,3.80
2023-03-27T12:37:43.752Z,5.32
2023-03-27T12:40:25.951Z,4.95
2023-03-27T12:42:54.536Z,4.57
2023-03-27T12:45:24.652Z,2.20
2023-03-27T12:48:17.099Z,3.83
2023-03-27T12:50:44.006Z,4.65
2023-03-27T12:53:25.572Z,5.22
2023-03-27T12:56:12.287Z,2.38
2023-03-27T12:58:46.695Z,4.78
2023-03-27T13:01:36.320Z,4.75
2023-03-27T13:04:17.223Z,3.17
2023-03-27T13:06:58.292Z,2.63
2023-03-27T13:09:46.307Z,4.45
2023-03-27T13:12:18.827Z,5.80
2023-03-27T13:14:57.233Z,3.42
2023-03-27T13:17:42.201Z,4.32
2023-03-27T13:20:17.283Z,7.80
2023-03-27T13:22:48.260Z,3.25
2023-03-27T13:25:23.921Z,2.65
2023-03-27T13:27:52.340Z,2.63
2023-03-27T13:30:38.734Z,2.40
2023-03-27T13:33:16.398Z,3.13
2023-03-27T13:35:53.507Z,2.35
2023-03-27T13:38:40.267Z,2.20
2023-03-27T13:41:27.209Z,2.70
2023-03-27T13:43:54.223Z,4.45
2023-03-27T13:46:33.841Z,4.13
2023-03-27T13:49:17.338Z,4.60
2023-03-27T13:51:50.847Z,6.13
2023-03-27T13:54:30.681Z,3.15
2023-03-27T13:57:05.255Z,2.10
2023-03-27T14:00:00.952Z,5.03
2023-03-27T14:03:00.050Z,5.43
2023-03-27T14:05:38.869Z,4.07
2023-03-27T14:08:23.120Z,3.63
2023-03-27T14:11:30.654Z,2.35
2023-03-27T14:14:00.350Z,5.13
2023-03-27T14:16:42.120Z,12.18
2023-03-27T14:19:18.578Z,3.17
2023-03-27T14:21:50.980Z,2.65
2023-03-27T14:24:24.213Z,3.60
2023-03-27T14:27:04.078Z,2.60
2023-03-27T14:29:32.515Z,2.67
2023-03-27T14:32:03.609Z,2.97
2023-03-27T14:34:47.151Z,4.63
2023-03-27T14:37:45.636Z,3.78
2023-03-27T14:40:23.718Z,6.40
2023-03-27T14:42:56.142Z,3.05
2023-03-27T14:45:27.296Z,5.63
2023-03-27T14:47:57.656Z,3.60
2023-03-27T14:50:27.369Z,3.65
2023-03-27T14:52:55.256Z,4.95
2023-03-27T14:55:36.578Z,2.42
2023-03-27T14:58:35.677Z,4.28
2023-03-27T15:01:04.859Z,2.60
2023-03-27T15:03:35.200Z,5.97
2023-03-27T15:06:13.621Z,4.65
2023-03-27T15:08:50.140Z,2.90
2023-03-27T15:11:40.271Z,2.40
2023-03-27T15:14:18.269Z,2.45
2023-03-27T15:16:48.476Z,2.67
2023-03-27T15:19:19.473Z,3.67
2023-03-27T15:21:56.618Z,3.20
2023-03-27T15:24:43.380Z,7.70
2023-03-27T15:27:17.881Z,6.68
2023-03-27T15:29:47.665Z,2.95
2023-03-27T15:32:18.801Z,6.70
2023-03-27T15:34:47.668Z,4.13
2023-03-27T15:37:24.384Z,4.82
2023-03-27T15:40:10.852Z,7.32
2023-03-27T15:42:52.676Z,5.10
2023-03-27T15:45:21.386Z,6.47
2023-03-27T15:48:07.864Z,3.88
2023-03-27T15:50:34.601Z,4.60
2023-03-27T15:53:01.726Z,2.70
2023-03-27T15:55:38.963Z,1.50
2023-03-27T15:58:19.490Z,2.80
2023-03-27T16:00:52.012Z,1.40
2023-03-27T16:03:23.542Z,2.83
2023-03-27T16:05:51.521Z,2.30
2023-03-27T16:08:37.638Z,2.58
2023-03-27T16:11:09.017Z,8.07
2023-03-27T16:13:42.018Z,2.22
2023-03-27T16:16:20.748Z,2.03
2023-03-27T16:18:49.386Z,2.55
2023-03-27T16:21:16.068Z,5.00
2023-03-27T16:23:43.970Z,3.30
2023-03-27T16:26:14.124Z,2.08
2023-03-27T16:28:41.505Z,2.53
2023-03-27T16:31:12.312Z,2.17
2023-03-27T16:33:39.284Z,4.60
2023-03-27T16:36:07.087Z,2.35
2023-03-27T16:38:35.366Z,3.70
2023-03-27T16:41:02.151Z,4.20
2023-03-27T16:43:28.605Z,6.80
2023-03-27T16:45:57.316Z,5.28
2023-03-27T16:48:24.532Z,3.72
2023-03-27T16:50:51.075Z,3.92
2023-03-27T16:53:17.666Z,4.18
2023-03-27T16:55:44.917Z,6.28
2023-03-27T16:58:11.718Z,2.78
2023-03-27T17:00:40.175Z,5.10
2023-03-27T17:03:06.966Z,6.13
2023-03-27T17:05:37.467Z,2.78
2023-03-27T17:08:06.748Z,6.68
2023-03-27T17:10:33.960Z,7.05
2023-03-27T17:13:01.146Z,3.83
2023-03-27T17:15:27.903Z,3.78
2023-03-27T17:17:54.933Z,6.30
2023-03-27T17:20:21.501Z,9.73
2023-03-27T17:22:48.353Z,5.90
2023-03-27T17:25:15.839Z,4.00
2023-03-27T17:27:42.239Z,3.38
2023-03-27T17:30:10.031Z,4.70
2023-03-27T17:32:37.202Z,5.10
2023-03-27T17:35:04.505Z,4.15
2023-03-27T17:37:31.640Z,7.78
2023-03-27T17:39:58.395Z,4.28
2023-03-27T17:42:24.945Z,3.10
2023-03-27T17:44:51.492Z,6.18
2023-03-27T17:47:17.978Z,3.97
2023-03-27T17:49:45.859Z,4.70
2023-03-27T17:52:13.595Z,4.55
2023-03-27T17:54:40.231Z,5.35
2023-03-27T17:57:07.036Z,5.68
2023-03-27T17:59:33.956Z,3.50
2023-03-27T18:02:01.190Z,5.05
2023-03-27T18:04:29.051Z,3.90
2023-03-27T18:06:55.623Z,6.43
2023-03-27T18:09:22.211Z,8.43
2023-03-27T18:11:48.933Z,5.05
2023-03-27T18:14:15.914Z,3.83
2023-03-27T18:16:43.389Z,5.60
2023-03-27T18:19:11.898Z,5.35
2023-03-27T18:21:40.262Z,5.10
2023-03-27T18:24:07.002Z,5.35
2023-03-27T18:26:33.694Z,6.65
2023-03-27T18:29:00.569Z,3.30
2023-03-27T18:31:27.209Z,5.07
2023-03-27T18:33:54.231Z,4.53
2023-03-27T18:36:21.414Z,3.70
2023-03-27T18:38:49.691Z,7.18
2023-03-27T18:41:17.017Z,5.65
2023-03-27T18:43:43.437Z,5.20
2023-03-27T18:46:14.058Z,4.93
2023-03-27T18:48:41.715Z,6.25
2023-03-27T18:51:15.967Z,4.65
2023-03-27T18:53:43.931Z,2.88
2023-03-27T18:56:10.619Z,10.02
2023-03-27T18:58:37.507Z,5.25
2023-03-27T19:01:10.149Z,4.97
2023-03-27T19:03:39.183Z,7.47
2023-03-27T19:06:06.914Z,7.32
2023-03-27T19:08:37.774Z,12.68
2023-03-27T19:11:09.021Z,8.05
2023-03-27T19:13:55.663Z,9.45
2023-03-27T19:16:28.729Z,5.50
2023-03-27T19:19:33.196Z,6.78
2023-03-27T19:22:18.456Z,4.70
2023-03-27T19:24:50.423Z,5.68
2023-03-27T19:27:24.163Z,6.35
2023-03-27T19:29:51.574Z,5.75
2023-03-27T19:32:18.045Z,3.83
2023-03-27T19:34:44.766Z,5.35
2023-03-27T19:37:11.661Z,4.68
2023-03-27T19:39:38.296Z,5.72
2023-03-27T19:42:05.645Z,5.70
2023-03-27T19:44:35.369Z,7.10
2023-03-27T19:47:03.671Z,6.00
2023-03-27T19:49:30.487Z,9.60
2023-03-27T19:52:20.215Z,7.88
2023-03-27T19:54:46.804Z,5.93
2023-03-27T19:57:13.550Z,3.78
2023-03-27T19:59:40.543Z,6.65
2023-03-27T20:02:08.338Z,6.22
2023-03-27T20:04:35.725Z,6.00
2023-03-27T20:07:02.828Z,6.43
2023-03-27T20:09:29.676Z,4.72
2023-03-27T20:11:56.891Z,5.93
2023-03-27T20:14:23.367Z,6.20
2023-03-27T20:16:51.370Z,7.72
2023-03-27T20:19:19.413Z,5.07
2023-03-27T20:21:47.944Z,3.75
2023-03-27T20:24:17.481Z,6.13
2023-03-27T20:26:52.497Z,7.60
2023-03-27T20:29:23.496Z,5.88
2023-03-27T20:31:50.461Z,8.70
2023-03-27T20:34:22.295Z,6.25
2023-03-27T20:36:53.249Z,4.15
2023-03-27T20:39:44.470Z,4.47
2023-03-27T20:42:15.264Z,9.70
2023-03-27T20:44:42.952Z,6.75
2023-03-27T20:47:12.651Z,5.68
2023-03-27T20:49:43.901Z,7.38
2023-03-27T20:52:12.759Z,7.28
2023-03-27T20:54:41.904Z,6.15
2023-03-27T20:57:10.433Z,5.13
2023-03-27T20:59:37.300Z,5.50
2023-03-27T21:02:06.175Z,3.90
2023-03-27T21:04:32.774Z,4.35
2023-03-27T21:06:59.797Z,5.05
2023-03-27T21:09:29.216Z,5.55
2023-03-27T21:12:01.468Z,4.10
2023-03-27T21:14:28.027Z,5.53
2023-03-27T21:16:54.719Z,5.80
2023-03-27T21:19:21.457Z,3.97
2023-03-27T21:21:48.621Z,4.30
2023-03-27T21:24:15.489Z,4.05
2023-03-27T21:26:42.217Z,7.32
2023-03-27T21:29:12.558Z,3.75
2023-03-27T21:31:39.992Z,4.45
2023-03-27T21:34:06.741Z,3.13
2023-03-27T21:36:33.760Z,5.60
2023-03-27T21:39:00.538Z,5.47
2023-03-27T21:41:27.257Z,6.15
2023-03-27T21:43:53.907Z,5.82
2023-03-27T21:46:21.092Z,5.95
2023-03-27T21:48:48.885Z,5.38
2023-03-27T21:51:15.562Z,3.30
2023-03-27T21:53:42.430Z,4.30
2023-03-27T21:56:09.229Z,3.88
2023-03-27T21:58:35.910Z,6.13
2023-03-27T22:01:02.563Z,5.32
2023-03-27T22:03:29.490Z,5.22
2023-03-27T22:06:10.235Z,6.50
2023-03-27T22:08:38.858Z,5.72
2023-03-27T22:11:07.003Z,2.60
2023-03-27T22:13:34.819Z,4.55
2023-03-27T22:16:02.445Z,7.35
2023-03-27T22:18:30.835Z,5.05
2023-03-27T22:20:57.398Z,4.50
2023-03-27T22:23:24.112Z,6.57
2023-03-27T22:25:51.449Z,5.50
2023-03-27T22:28:17.928Z,3.70
2023-03-27T22:30:44.423Z,9.48
2023-03-27T22:33:11.241Z,3.55
2023-03-27T22:35:37.879Z,10.05
2023-03-27T22:38:04.455Z,3.88
2023-03-27T22:40:31.064Z,4.82
2023-03-27T22:42:57.900Z,6.22
2023-03-27T22:45:24.678Z,2.38
2023-03-27T22:47:51.547Z,6.10
2023-03-27T22:50:18.964Z,8.32
2023-03-27T22:52:45.686Z,3.97
2023-03-27T22:55:12.157Z,6.88
2023-03-27T22:57:38.978Z,4.03
2023-03-27T23:00:07.211Z,3.90
2023-03-27T23:02:33.885Z,13.13
2023-03-27T23:05:00.613Z,6.93
2023-03-27T23:07:27.526Z,2.67
2023-03-27T23:09:54.346Z,2.28
2023-03-27T23:12:21.384Z,5.38
2023-03-27T23:14:47.934Z,4.30
2023-03-27T23:17:16.005Z,4.10
2023-03-27T23:19:42.694Z,2.47
2023-03-27T23:22:09.323Z,4.85
2023-03-27T23:24:37.465Z,5.28
2023-03-27T23:27:05.019Z,3.75
2023-03-27T23:29:34.544Z,6.85
2023-03-27T23:32:01.085Z,8.05
2023-03-27T23:34:29.446Z,3.40
2023-03-27T23:36:56.128Z,4.18
2023-03-27T23:39:23.212Z,19.02
2023-03-27T23:41:49.706Z,5.10
2023-03-27T23:44:16.247Z,5.50
2023-03-27T23:46:42.773Z,5.25
2023-03-27T23:49:11.761Z,3.30
2023-03-27T23:51:38.272Z,2.38
2023-03-27T23:54:04.941Z,9.35
2023-03-27T23:56:31.507Z,6.60
2023-03-27T23:58:57.986Z,10.27
